Aldrich, Missouri
Current Conditions -  °F | °C
As of 2:52 PM on Sunday 21 Dec 2014 (Local Time) from KSGF Reporting Station
Overcast Overcast  
Wind Chill: 34°   Ceiling: 4200
Heat Index: 42°   Visibility: 10mi
Dew Point: 36°   Wind: 16mph
Humidity: 79%   Direction: 160°SSE
Pressure: 29.92"   Gusts: NA
Location:  37.55°N, 93.55°W
Report Text: KSGF 212052Z 16014KT 10SM SCT014 OVC042 06/02 A2992 RMK AO2 SLP135 T00560022 56031
Loading
Personal Weather Stations






























Interactive Weather Map New forecast layout! Learn more

10-Day Weather Forecast

Advertisements
Track Severe Weather on mobile